This demonstration page uses our WeatherBlox Daily Observations layout. Learn more.

38.88101, -77.10428

Hourly Observations for January 14, 2016

Temp ( °F °C ) Dew Point ( °F °C ) Humidity (%) Winds ( mph kmh ) Pressure ( in mb ) Visibility ( mi km ) Precip ( " mm )
12:52 am 00:52 Cloudy 28 -2 5 -15 37 37 E 3 6 30.03 1017 10 16.09344 0 0
1:52 am 01:52 Cloudy 28 -2 7 -14 40 40 SE 5 7 30 1016 10 16.09344 0 0
2:52 am 02:52 Cloudy 28 -2 9 -13 43 43 S 6 9 30 1016 10 16.09344 0 0
3:52 am 03:52 Mostly Cloudy 28 -2 10 -12 47 47 WSW 3 6 30 1016 10 16.09344 0 0
4:52 am 04:52 Cloudy 28 -2 10 -12 47 47 WSW 5 7 29.97 1015 10 16.09344 0 0
5:52 am 05:52 Cloudy 28 -2 14 -10 55 55 S 3 6 29.97 1015 10 16.09344 0 0
6:52 am 06:52 Mostly Clear 28 -2 12 -11 51 51 Calm 30 1016 10 16.09344 0 0
7:52 am 07:52 Mostly Sunny 28 -2 12 -11 51 51 SSW 7 11 30 1016 10 16.09344 0 0
8:52 am 08:52 Partly Cloudy 30 -1 12 -11 47 47 SSW 7 11 30 1016 10 16.09344 0 0
10:52 am 10:52 Mostly Sunny 39 4 21 -6 48 48 S 8 13 30 1016 10 16.09344 0 0
11:52 am 11:52 Mostly Sunny 43 6 23 -5 46 46 S 12 19 29.97 1015 10 16.09344 0 0
12:52 pm 12:52 Mostly Sunny 50 10 25 -4 37 37 SSW 10 17 29.94 1014 10 16.09344 0 0
1:52 pm 13:52 Mostly Sunny 52 11 25 -4 35 35 SSW 13 20 29.94 1014 10 16.09344 0 0
2:52 pm 14:52 Mostly Sunny 54 12 27 -3 35 35 SSW 16 26 29.94 1014 10 16.09344 0 0
3:52 pm 15:52 Mostly Sunny 52 11 28 -2 41 41 S 13 20 29.94 1014 10 16.09344 0 0
4:52 pm 16:52 Partly Cloudy 50 10 28 -2 43 43 S 10 17 29.94 1014 10 16.09344 0 0
5:52 pm 17:52 Partly Cloudy 46 8 30 -1 53 53 S 9 15 29.97 1015 10 16.09344 0 0
6:52 pm 18:52 Clear 43 6 30 -1 61 61 S 10 17 29.97 1015 10 16.09344 0 0
7:52 pm 19:52 Clear 43 6 30 -1 61 61 S 10 17 29.97 1015 10 16.09344 0 0
8:52 pm 20:52 Clear 45 7 30 -1 57 57 SW 5 7 29.97 1015 10 16.09344 0 0
9:52 pm 21:52 Clear 39 4 32 0 75 75 S 7 11 29.97 1015 10 16.09344 0 0
10:52 pm 22:52 Clear 43 6 30 -1 61 61 S 7 11 29.97 1015 10 16.09344 0 0
11:52 pm 23:52 Clear 41 5 30 -1 66 66 SSW 6 9 29.97 1015 10 16.09344 0 0

Powered by AerisWeather